Time;durP1;ratioP1;P1;durP2;ratioP2;P2;SDS_P1;SDS_P2;PMS_P1;PMS_P2;Temp;Humidity;BMP_temperature;BMP_pressure;BME280_temperature;BME280_humidity;BME280_pressure;Samples;Min_cycle;Max_cycle;Signal;HPM_P1;HPM_P2
2023/06/16 00:00:36;;;;;;;1.35;0.50;;;16.60;99.90;;;;;;5021152;28;20033;-80
2023/06/16 00:03:02;;;;;;;1.90;0.60;;;16.50;99.90;;;;;;5007644;28;20018;-80
2023/06/16 00:05:34;;;;;;;2.55;0.52;;;16.40;99.90;;;;;;5022731;28;20025;-80
2023/06/16 00:08:02;;;;;;;1.23;0.50;;;16.30;99.90;;;;;;5010534;28;20033;-80
2023/06/16 00:10:28;;;;;;;1.70;0.50;;;16.20;99.90;;;;;;4991491;28;20479;-80
2023/06/16 00:12:54;;;;;;;1.98;0.52;;;16.10;99.90;;;;;;5009756;28;20120;-79
2023/06/16 00:15:20;;;;;;;1.75;0.60;;;16.00;99.90;;;;;;5009721;28;20044;-79
2023/06/16 00:17:49;;;;;;;1.70;0.60;;;15.90;99.90;;;;;;5039406;28;20030;-80
2023/06/16 00:20:19;;;;;;;2.15;0.60;;;15.80;99.90;;;;;;5029080;28;20144;-80
2023/06/16 00:22:47;;;;;;;1.92;0.50;;;15.70;99.90;;;;;;5039508;28;20025;-80
2023/06/16 00:25:19;;;;;;;1.55;0.60;;;15.80;99.90;;;;;;5021925;28;20038;-79
2023/06/16 00:27:45;;;;;;;1.35;0.52;;;16.00;99.90;;;;;;4996234;28;20030;-82
2023/06/16 00:30:12;;;;;;;1.60;0.50;;;16.10;99.90;;;;;;5038004;28;20109;-82
2023/06/16 00:32:37;;;;;;;1.30;0.50;;;15.90;99.90;;;;;;5023571;28;20404;-82
2023/06/16 00:35:03;;;;;;;1.90;0.57;;;16.00;99.90;;;;;;5021041;28;20120;-81
2023/06/16 00:37:29;;;;;;;1.58;0.60;;;15.80;99.90;;;;;;5005023;28;20029;-81
2023/06/16 00:39:55;;;;;;;1.52;0.50;;;15.60;99.90;;;;;;4988471;28;20026;-79
2023/06/16 00:42:21;;;;;;;3.03;0.73;;;15.70;99.90;;;;;;5006621;28;20030;-80
2023/06/16 00:44:46;;;;;;;1.80;0.55;;;15.50;99.90;;;;;;5021546;28;20030;-80
2023/06/16 00:47:12;;;;;;;2.03;0.60;;;15.50;99.90;;;;;;5023846;28;20124;-80
2023/06/16 00:49:38;;;;;;;1.80;0.60;;;15.40;99.90;;;;;;4992487;28;20458;-79
2023/06/16 00:52:07;;;;;;;1.30;0.50;;;15.30;99.90;;;;;;5039299;28;20084;-80
2023/06/16 00:54:33;;;;;;;3.33;0.80;;;15.20;99.90;;;;;;5007756;28;20036;-80
2023/06/16 00:56:59;;;;;;;1.50;0.60;;;15.10;99.90;;;;;;4989918;28;20044;-80
2023/06/16 00:59:27;;;;;;;2.17;0.50;;;15.10;99.90;;;;;;5007816;28;20065;-81
2023/06/16 01:01:55;;;;;;;2.13;0.60;;;15.10;99.90;;;;;;5005659;28;20133;-79
2023/06/16 01:04:25;;;;;;;2.25;0.50;;;15.10;99.90;;;;;;5036671;28;20034;-80
2023/06/16 01:07:20;;;;;;;1.20;0.50;;;15.00;99.90;;;;;;5041425;28;20394;-82
2023/06/16 01:09:59;;;;;;;1.77;0.60;;;15.10;99.90;;;;;;5007312;28;20306;-80
2023/06/16 01:12:37;;;;;;;3.08;0.60;;;14.90;99.90;;;;;;5008115;28;20449;-82
2023/06/16 01:15:11;;;;;;;3.78;0.70;;;14.80;99.90;;;;;;5007272;28;20033;-82
2023/06/16 01:17:43;;;;;;;2.85;0.95;;;14.80;99.90;;;;;;5039136;28;20022;-82
2023/06/16 01:20:27;;;;;;;;;;;14.70;99.90;;;;;;5007505;28;20378;-81
2023/06/16 01:23:05;;;;;;;2.90;0.60;;;14.60;99.90;;;;;;5004736;28;19913;-81
2023/06/16 01:25:38;;;;;;;1.60;0.60;;;14.60;99.90;;;;;;4994175;28;20038;-82
2023/06/16 01:28:05;;;;;;;1.38;0.50;;;14.60;99.90;;;;;;5025197;28;20018;-82
2023/06/16 01:30:32;;;;;;;2.78;0.70;;;14.40;99.90;;;;;;5035755;28;20129;-82
2023/06/16 01:32:59;;;;;;;1.85;0.57;;;14.40;99.90;;;;;;5008172;28;20390;-81
2023/06/16 01:35:28;;;;;;;1.80;0.80;;;14.40;99.90;;;;;;5004569;28;20590;-82
2023/06/16 01:37:55;;;;;;;1.70;0.60;;;14.40;99.90;;;;;;5038599;28;20427;-82
2023/06/16 01:40:23;;;;;;;2.70;0.63;;;14.40;99.90;;;;;;5008404;28;20038;-80
2023/06/16 01:42:50;;;;;;;1.85;0.70;;;14.30;99.90;;;;;;5040252;28;20080;-81
2023/06/16 01:45:17;;;;;;;4.85;0.80;;;14.20;99.90;;;;;;5006033;28;20042;-81
2023/06/16 01:47:44;;;;;;;2.30;0.77;;;14.10;99.90;;;;;;5008090;28;20030;-81
2023/06/16 01:50:11;;;;;;;2.42;0.73;;;14.10;99.90;;;;;;5006870;28;20028;-81
2023/06/16 01:52:37;;;;;;;1.77;0.77;;;14.10;99.90;;;;;;5003669;28;20033;-82
2023/06/16 01:55:03;;;;;;;2.38;0.60;;;14.10;99.90;;;;;;4989779;28;20034;-82
2023/06/16 01:57:29;;;;;;;2.65;0.90;;;14.20;99.90;;;;;;4990852;28;20030;-82
2023/06/16 02:00:02;;;;;;;1.92;0.75;;;14.10;99.90;;;;;;5006259;28;20071;-81
2023/06/16 02:02:45;;;;;;;3.50;0.82;;;14.20;99.90;;;;;;5035248;28;20034;-80
2023/06/16 02:05:13;;;;;;;1.60;0.70;;;14.10;99.90;;;;;;5003808;28;20099;-81
2023/06/16 02:07:41;;;;;;;2.53;0.70;;;14.10;99.90;;;;;;5021896;28;20348;-79
2023/06/16 02:10:11;;;;;;;1.52;0.63;;;14.10;99.90;;;;;;5040011;28;20433;-80
2023/06/16 02:12:37;;;;;;;2.00;0.60;;;14.10;99.90;;;;;;5005642;28;20043;-82
2023/06/16 02:15:04;;;;;;;2.53;0.77;;;14.00;99.90;;;;;;4991415;28;20033;-82
2023/06/16 02:17:30;;;;;;;3.20;0.80;;;13.90;99.90;;;;;;5023798;28;20367;-82
2023/06/16 02:19:58;;;;;;;2.22;0.85;;;13.80;99.90;;;;;;4991404;28;20116;-82
2023/06/16 02:22:23;;;;;;;3.03;0.98;;;13.80;99.90;;;;;;4988613;28;20026;-82
2023/06/16 02:24:49;;;;;;;2.38;0.90;;;13.80;99.90;;;;;;4986967;28;20037;-82
2023/06/16 02:27:15;;;;;;;2.92;0.75;;;13.80;99.90;;;;;;5022207;28;20061;-82
2023/06/16 02:29:41;;;;;;;2.40;0.80;;;13.80;99.90;;;;;;5007104;28;20492;-82
2023/06/16 02:32:07;;;;;;;1.95;0.70;;;13.80;99.90;;;;;;5019562;28;20120;-82
2023/06/16 02:34:33;;;;;;;3.05;0.82;;;13.80;99.90;;;;;;5035608;28;20038;-83
2023/06/16 02:37:00;;;;;;;3.38;0.82;;;13.80;99.90;;;;;;5023747;28;20033;-82
2023/06/16 02:39:26;;;;;;;2.65;0.98;;;13.80;99.90;;;;;;5007411;28;20034;-82
2023/06/16 02:41:53;;;;;;;2.35;0.82;;;13.70;99.90;;;;;;4989445;28;20026;-82
2023/06/16 02:44:19;;;;;;;2.25;0.90;;;13.70;99.90;;;;;;5040095;28;20036;-81
2023/06/16 02:46:45;;;;;;;2.45;1.00;;;13.60;99.90;;;;;;5040031;28;20475;-82
2023/06/16 02:49:12;;;;;;;2.47;0.90;;;13.50;99.90;;;;;;4991326;28;20126;-82
2023/06/16 02:51:38;;;;;;;2.65;1.15;;;13.50;99.90;;;;;;5039820;28;20022;-82
2023/06/16 02:54:06;;;;;;;2.42;0.90;;;13.40;99.90;;;;;;5006552;28;20041;-82
2023/06/16 02:56:32;;;;;;;2.80;1.02;;;13.40;99.90;;;;;;4987364;28;20028;-82
2023/06/16 02:58:58;;;;;;;1.77;1.00;;;13.40;99.90;;;;;;5023940;28;20029;-81
2023/06/16 03:01:29;;;;;;;4.10;1.00;;;13.30;99.90;;;;;;5023190;28;20030;-82
2023/06/16 03:04:24;;;;;;;3.35;0.90;;;13.30;99.90;;;;;;5004467;28;20491;-82
2023/06/16 03:07:14;;;;;;;2.08;0.95;;;13.30;99.90;;;;;;5003167;28;20076;-82
2023/06/16 03:09:45;;;;;;;2.38;0.80;;;13.40;99.90;;;;;;5007596;28;20026;-82
2023/06/16 03:12:11;;;;;;;2.35;1.20;;;13.40;99.90;;;;;;4990515;28;20045;-82
2023/06/16 03:14:47;;;;;;;2.85;0.95;;;13.40;99.90;;;;;;5039654;28;20113;-82
2023/06/16 03:17:19;;;;;;;2.10;0.98;;;13.50;99.90;;;;;;5043317;28;20022;-82
2023/06/16 03:19:45;;;;;;;2.40;1.20;;;13.50;99.90;;;;;;5010221;28;20026;-79
2023/06/16 03:22:12;;;;;;;4.10;1.20;;;13.40;99.90;;;;;;5022098;28;20494;-81
2023/06/16 03:24:44;;;;;;;4.07;1.33;;;13.40;99.90;;;;;;4989192;28;20101;-79
2023/06/16 03:27:11;;;;;;;2.20;1.20;;;13.40;99.90;;;;;;4996738;28;20386;-80
2023/06/16 03:29:57;;;;;;;3.33;1.08;;;13.30;99.90;;;;;;5007089;28;20026;-79
2023/06/16 03:32:24;;;;;;;2.38;0.70;;;13.40;99.90;;;;;;5041033;28;20040;-81
2023/06/16 03:34:50;;;;;;;4.03;1.23;;;13.50;99.90;;;;;;5039640;28;20037;-79
2023/06/16 03:37:17;;;;;;;4.07;1.00;;;13.50;99.90;;;;;;5021417;28;20034;-79
2023/06/16 03:39:43;;;;;;;2.35;1.40;;;13.60;99.90;;;;;;5004828;28;20057;-79
2023/06/16 03:42:10;;;;;;;2.03;1.15;;;13.70;99.90;;;;;;5005552;28;20101;-80
2023/06/16 03:44:36;;;;;;;1.83;1.08;;;13.80;99.90;;;;;;5036596;28;20477;-79
2023/06/16 03:47:03;;;;;;;3.25;0.88;;;13.80;99.90;;;;;;5040705;28;20021;-79
2023/06/16 03:49:31;;;;;;;3.05;0.90;;;13.80;99.90;;;;;;5007907;28;20160;-79
2023/06/16 03:51:57;;;;;;;2.13;0.77;;;13.90;99.90;;;;;;5005323;28;20447;-81
2023/06/16 03:54:24;;;;;;;2.72;0.95;;;14.00;99.90;;;;;;4987319;28;20050;-82
2023/06/16 03:56:50;;;;;;;2.78;1.25;;;14.00;99.90;;;;;;5010083;28;20030;-81
2023/06/16 03:59:16;;;;;;;2.42;1.00;;;14.00;99.90;;;;;;5005066;28;20038;-82
2023/06/16 04:01:42;;;;;;;4.03;1.00;;;14.10;99.90;;;;;;5020273;28;20033;-83
2023/06/16 04:04:07;;;;;;;2.05;0.90;;;14.10;99.90;;;;;;5023015;28;20034;-82
2023/06/16 04:06:34;;;;;;;3.35;0.90;;;14.10;99.90;;;;;;5007098;28;20026;-82
2023/06/16 04:09:02;;;;;;;1.95;0.80;;;14.00;99.90;;;;;;4988404;28;20607;-82
2023/06/16 04:11:30;;;;;;;1.60;0.82;;;14.00;99.90;;;;;;5038704;28;20029;-81
2023/06/16 04:13:56;;;;;;;1.73;0.70;;;14.00;99.90;;;;;;5008746;28;20084;-83
2023/06/16 04:16:23;;;;;;;2.33;1.00;;;14.10;99.90;;;;;;4989778;28;20375;-82
2023/06/16 04:18:49;;;;;;;1.95;0.93;;;14.10;99.90;;;;;;4999652;28;20052;-82
2023/06/16 04:21:15;;;;;;;2.30;1.30;;;14.20;99.90;;;;;;5006701;28;20073;-82
2023/06/16 04:23:41;;;;;;;2.25;1.00;;;14.30;99.90;;;;;;5008376;28;20064;-82
2023/06/16 04:26:09;;;;;;;2.85;1.00;;;14.30;99.90;;;;;;5037556;28;20032;-82
2023/06/16 04:28:42;;;;;;;3.70;1.20;;;14.30;99.90;;;;;;5040411;28;20477;-82
2023/06/16 04:31:09;;;;;;;2.47;1.05;;;14.30;99.90;;;;;;5002100;28;20026;-81
2023/06/16 04:33:36;;;;;;;3.03;1.33;;;14.20;99.90;;;;;;5038831;28;20095;-82
2023/06/16 04:36:04;;;;;;;2.33;0.80;;;14.20;99.90;;;;;;5019193;28;20023;-82
2023/06/16 04:38:30;;;;;;;2.15;1.00;;;14.10;99.90;;;;;;5038110;28;20513;-82
2023/06/16 04:40:56;;;;;;;2.20;1.15;;;14.10;99.90;;;;;;5037101;28;20033;-79
2023/06/16 04:43:22;;;;;;;2.53;0.88;;;14.20;99.90;;;;;;4989617;28;20034;-80
2023/06/16 04:45:47;;;;;;;2.58;1.05;;;14.20;99.90;;;;;;5006048;28;20034;-79
2023/06/16 04:48:13;;;;;;;3.20;0.93;;;14.30;99.90;;;;;;4987450;28;20022;-80
2023/06/16 04:50:39;;;;;;;3.20;1.30;;;14.30;99.90;;;;;;5007353;28;20049;-80
2023/06/16 04:53:05;;;;;;;3.42;1.15;;;14.30;99.90;;;;;;5021013;28;20399;-82
2023/06/16 04:55:31;;;;;;;2.25;1.15;;;14.30;99.90;;;;;;5038653;28;20112;-81
2023/06/16 04:57:56;;;;;;;2.10;1.30;;;14.40;99.90;;;;;;5006890;28;20495;-79
2023/06/16 05:00:22;;;;;;;2.33;1.38;;;14.40;99.90;;;;;;4991625;28;20084;-79
2023/06/16 05:02:48;;;;;;;4.10;1.80;;;14.50;99.90;;;;;;4987944;28;20093;-80
2023/06/16 05:05:13;;;;;;;3.08;1.20;;;14.50;99.90;;;;;;5008535;28;20072;-79
2023/06/16 05:07:39;;;;;;;3.78;1.90;;;14.50;99.90;;;;;;5035463;28;20052;-79
2023/06/16 05:10:06;;;;;;;2.92;2.05;;;14.60;99.90;;;;;;5036831;28;20037;-79
2023/06/16 05:12:32;;;;;;;3.13;1.95;;;14.60;99.90;;;;;;5005803;28;20028;-79
2023/06/16 05:14:59;;;;;;;4.25;2.38;;;14.60;99.90;;;;;;5036975;28;20048;-79
2023/06/16 05:17:26;;;;;;;3.75;2.17;;;14.70;99.90;;;;;;4991625;28;20567;-79
2023/06/16 05:19:51;;;;;;;4.75;2.20;;;14.70;99.90;;;;;;5038827;28;20057;-80
2023/06/16 05:22:23;;;;;;;3.00;2.15;;;14.80;99.90;;;;;;5037134;28;20042;-79
2023/06/16 05:24:57;;;;;;;4.25;2.28;;;15.00;99.90;;;;;;5034768;28;20050;-82
2023/06/16 05:27:24;;;;;;;5.63;2.35;;;15.30;99.90;;;;;;5007200;28;20057;-79
2023/06/16 05:29:53;;;;;;;8.13;3.78;;;15.40;99.90;;;;;;5016292;28;20026;-79
2023/06/16 05:32:21;;;;;;;4.90;4.07;;;15.60;99.90;;;;;;5020551;28;20033;-80
2023/06/16 05:34:49;;;;;;;5.57;4.03;;;15.70;99.90;;;;;;4989197;28;20509;-83
2023/06/16 05:37:15;;;;;;;5.45;4.00;;;15.80;99.90;;;;;;5021719;28;20026;-82
2023/06/16 05:39:51;;;;;;;4.65;4.10;;;15.80;99.90;;;;;;5006974;28;20077;-82
2023/06/16 05:42:17;;;;;;;5.53;3.80;;;16.00;99.90;;;;;;4985900;28;20034;-82
2023/06/16 05:44:44;;;;;;;6.25;4.38;;;16.10;99.90;;;;;;4988565;28;20072;-83
2023/06/16 05:47:11;;;;;;;5.07;3.78;;;16.00;99.90;;;;;;4991820;28;20037;-82
2023/06/16 05:49:37;;;;;;;8.02;6.13;;;16.00;99.90;;;;;;5005974;28;20023;-82
2023/06/16 05:52:05;;;;;;;5.13;4.10;;;16.10;99.90;;;;;;5038223;28;20542;-81
2023/06/16 05:54:32;;;;;;;7.38;3.80;;;16.10;99.90;;;;;;5030988;28;20036;-79
2023/06/16 05:57:00;;;;;;;4.70;3.95;;;16.10;99.90;;;;;;4991088;28;20383;-79
2023/06/16 05:59:26;;;;;;;4.93;2.63;;;16.10;99.90;;;;;;4990586;28;20022;-79
2023/06/16 06:01:52;;;;;;;4.00;3.38;;;16.40;99.90;;;;;;5003324;28;20033;-79
2023/06/16 06:04:30;;;;;;;5.57;4.05;;;16.60;99.90;;;;;;4987827;28;20062;-78
2023/06/16 06:06:58;;;;;;;;;;;16.80;99.90;;;;;;5003322;28;20360;-79
2023/06/16 06:09:24;;;;;;;5.32;4.15;;;17.00;99.90;;;;;;5006850;28;19916;-80
2023/06/16 06:11:50;;;;;;;4.30;3.35;;;17.10;99.90;;;;;;4989807;28;20081;-78
2023/06/16 06:14:17;;;;;;;5.10;4.10;;;17.50;99.90;;;;;;5019453;28;20037;-80
2023/06/16 06:16:44;;;;;;;5.20;3.10;;;17.60;99.90;;;;;;5005683;28;20050;-79
2023/06/16 06:19:10;;;;;;;4.15;2.65;;;17.60;99.90;;;;;;5005006;28;20030;-79
2023/06/16 06:21:38;;;;;;;3.50;1.83;;;17.80;99.90;;;;;;5004694;28;20045;-78
2023/06/16 06:24:05;;;;;;;5.13;2.30;;;18.10;99.90;;;;;;4985931;28;20046;-79
2023/06/16 06:26:31;;;;;;;3.35;1.98;;;18.20;99.90;;;;;;5033163;28;20109;-79
2023/06/16 06:28:59;;;;;;;6.15;2.58;;;18.50;99.90;;;;;;5034780;28;20269;-79
2023/06/16 06:31:25;;;;;;;3.20;1.77;;;18.80;99.90;;;;;;5020070;28;20304;-79
2023/06/16 06:33:51;;;;;;;6.72;2.83;;;18.90;99.90;;;;;;5035734;28;20041;-79
2023/06/16 06:36:26;;;;;;;3.45;2.30;;;18.80;99.90;;;;;;5037023;28;20033;-79
2023/06/16 06:38:54;;;;;;;2.70;1.20;;;19.20;99.90;;;;;;5005707;28;20039;-81
2023/06/16 06:41:22;;;;;;;3.05;1.63;;;19.80;99.90;;;;;;5006066;28;20036;-79
2023/06/16 06:43:49;;;;;;;2.88;1.60;;;19.70;99.90;;;;;;5032652;28;20041;-79
2023/06/16 06:46:18;;;;;;;5.78;1.85;;;19.60;99.90;;;;;;4986051;28;20034;-79
2023/06/16 06:48:45;;;;;;;2.42;1.50;;;19.80;99.90;;;;;;5037367;28;20066;-79
2023/06/16 06:51:13;;;;;;;4.47;1.77;;;20.20;99.90;;;;;;5008689;28;20370;-80
2023/06/16 06:53:40;;;;;;;4.00;1.42;;;20.60;99.90;;;;;;5004649;28;20056;-79
2023/06/16 06:56:06;;;;;;;2.05;0.73;;;20.70;99.90;;;;;;4989173;28;20387;-79
2023/06/16 06:58:33;;;;;;;2.30;1.00;;;20.70;99.90;;;;;;5006151;28;20054;-79
2023/06/16 07:00:58;;;;;;;2.38;1.30;;;20.30;99.90;;;;;;5024082;28;20144;-79
2023/06/16 07:03:26;;;;;;;3.38;1.20;;;20.40;99.90;;;;;;5007670;28;20488;-79
2023/06/16 07:05:52;;;;;;;4.15;1.75;;;20.60;99.90;;;;;;5007850;28;20371;-79
2023/06/16 07:08:18;;;;;;;3.90;2.35;;;20.50;99.90;;;;;;5007542;28;20471;-78
2023/06/16 07:10:44;;;;;;;3.92;1.10;;;20.20;99.90;;;;;;4988495;28;20023;-79
2023/06/16 07:13:10;;;;;;;3.35;1.20;;;20.50;99.90;;;;;;5008992;28;20597;-79
2023/06/16 07:15:35;;;;;;;2.90;1.60;;;20.40;99.90;;;;;;5007032;28;20057;-79
2023/06/16 07:18:01;;;;;;;1.92;0.90;;;20.20;99.90;;;;;;4990456;28;20026;-79
2023/06/16 07:20:27;;;;;;;3.22;1.42;;;20.20;99.90;;;;;;5005504;28;20422;-80
2023/06/16 07:22:52;;;;;;;2.47;0.68;;;20.00;99.90;;;;;;5036996;28;20057;-80
2023/06/16 07:25:18;;;;;;;3.28;1.23;;;20.20;99.90;;;;;;4991640;28;20022;-79
2023/06/16 07:27:44;;;;;;;2.70;1.27;;;20.20;99.90;;;;;;5004096;28;20347;-78
2023/06/16 07:30:10;;;;;;;4.30;1.40;;;20.40;99.90;;;;;;5021464;28;20063;-79
2023/06/16 07:32:36;;;;;;;2.75;1.40;;;20.60;99.90;;;;;;5019388;28;20085;-79
2023/06/16 07:35:03;;;;;;;3.78;1.38;;;20.80;99.90;;;;;;5004819;28;20514;-80
2023/06/16 07:37:28;;;;;;;2.65;0.90;;;21.00;99.90;;;;;;5006582;28;20034;-80
2023/06/16 07:39:54;;;;;;;2.55;0.90;;;21.40;99.90;;;;;;5009028;28;20034;-79
2023/06/16 07:42:20;;;;;;;2.45;1.20;;;21.80;99.90;;;;;;5007861;28;20027;-80
2023/06/16 07:44:46;;;;;;;2.70;1.50;;;21.60;99.90;;;;;;5034942;28;20549;-80
2023/06/16 07:47:11;;;;;;;2.90;1.00;;;21.70;99.90;;;;;;5003857;28;20066;-80
2023/06/16 07:49:37;;;;;;;2.13;0.90;;;22.10;98.00;;;;;;4989797;28;20072;-79
2023/06/16 07:52:04;;;;;;;2.28;1.10;;;22.10;99.10;;;;;;5001924;28;20018;-80
2023/06/16 07:54:30;;;;;;;3.08;1.02;;;21.70;97.90;;;;;;5037944;28;20045;-81
2023/06/16 07:56:55;;;;;;;2.45;0.60;;;22.20;98.70;;;;;;4992891;28;20525;-80
2023/06/16 07:59:21;;;;;;;3.15;0.90;;;22.90;97.60;;;;;;5006644;28;20030;-80
2023/06/16 08:01:47;;;;;;;3.05;0.70;;;22.50;94.60;;;;;;5001430;28;20029;-80
2023/06/16 08:04:12;;;;;;;3.90;0.88;;;22.20;96.00;;;;;;5015938;28;20044;-81
2023/06/16 08:06:39;;;;;;;2.67;0.80;;;22.40;96.70;;;;;;4991603;28;20117;-78
2023/06/16 08:09:07;;;;;;;2.85;0.88;;;22.70;96.70;;;;;;5035464;28;20054;-80
2023/06/16 08:11:35;;;;;;;1.98;0.75;;;22.70;97.80;;;;;;5038450;28;20030;-80
2023/06/16 08:14:01;;;;;;;2.10;0.80;;;22.50;95.90;;;;;;5003329;28;20301;-80
2023/06/16 08:16:27;;;;;;;3.30;0.70;;;22.70;96.20;;;;;;5036259;28;20033;-81
2023/06/16 08:18:56;;;;;;;1.20;0.60;;;23.10;95.40;;;;;;5006815;28;20034;-80
2023/06/16 08:21:22;;;;;;;2.03;0.90;;;23.80;95.70;;;;;;5035259;28;20057;-81
2023/06/16 08:23:48;;;;;;;1.40;0.57;;;23.60;94.80;;;;;;5003562;28;20038;-80
2023/06/16 08:26:14;;;;;;;1.95;0.80;;;23.60;95.10;;;;;;5000777;28;20088;-79
2023/06/16 08:28:40;;;;;;;2.67;0.80;;;23.30;94.90;;;;;;5018445;28;20104;-79
2023/06/16 08:31:06;;;;;;;1.52;0.63;;;23.30;95.00;;;;;;5037439;28;20023;-80
2023/06/16 08:33:32;;;;;;;3.33;0.70;;;23.60;94.70;;;;;;5035342;28;20045;-80
2023/06/16 08:35:57;;;;;;;1.33;0.60;;;23.60;94.50;;;;;;5036965;28;20048;-80
2023/06/16 08:38:24;;;;;;;1.88;0.68;;;24.30;94.50;;;;;;4990808;28;20033;-80
2023/06/16 08:40:49;;;;;;;1.10;0.52;;;24.40;94.50;;;;;;4991516;28;20036;-80
2023/06/16 08:43:16;;;;;;;2.45;0.73;;;24.90;93.50;;;;;;4990889;28;20500;-80
2023/06/16 08:45:45;;;;;;;1.25;0.60;;;24.90;92.70;;;;;;5021689;28;20113;-80
2023/06/16 08:48:11;;;;;;;1.50;0.60;;;24.70;93.70;;;;;;5006987;28;20037;-80
2023/06/16 08:50:38;;;;;;;1.63;0.85;;;24.20;92.50;;;;;;5007843;28;20037;-80
2023/06/16 08:53:08;;;;;;;3.90;0.80;;;24.10;93.10;;;;;;5035524;28;20022;-80
2023/06/16 08:55:37;;;;;;;1.42;0.73;;;24.10;92.70;;;;;;5002001;28;20034;-80
2023/06/16 08:58:03;;;;;;;2.03;0.70;;;24.60;94.00;;;;;;5018951;28;20026;-80
2023/06/16 09:00:31;;;;;;;2.50;0.80;;;25.00;93.70;;;;;;5003508;28;20030;-81
2023/06/16 09:02:59;;;;;;;2.17;0.80;;;24.30;92.70;;;;;;4991336;28;20029;-80
2023/06/16 09:05:25;;;;;;;1.58;0.60;;;24.50;93.00;;;;;;5019369;28;20292;-80
2023/06/16 09:07:52;;;;;;;1.80;0.73;;;25.20;92.70;;;;;;4990680;28;20513;-81
2023/06/16 09:10:19;;;;;;;1.20;0.50;;;26.00;91.40;;;;;;4991248;28;20498;-80
2023/06/16 09:12:51;;;;;;;1.13;0.40;;;26.50;92.40;;;;;;4990162;28;20034;-81
2023/06/16 09:15:17;;;;;;;1.38;0.50;;;26.20;91.40;;;;;;5018993;28;20053;-80
2023/06/16 09:17:44;;;;;;;1.25;0.63;;;25.30;91.60;;;;;;5032834;28;20129;-81
2023/06/16 09:20:19;;;;;;;1.58;0.70;;;24.90;92.20;;;;;;5002229;28;20032;-82
2023/06/16 09:23:04;;;;;;;1.60;0.70;;;24.80;91.80;;;;;;5034828;28;20034;-81
2023/06/16 09:25:34;;;;;;;1.38;0.60;;;25.40;92.20;;;;;;5016751;28;20027;-80
2023/06/16 09:28:07;;;;;;;1.00;0.50;;;25.60;91.30;;;;;;5005378;28;20084;-80
2023/06/16 09:30:34;;;;;;;3.28;0.90;;;26.20;91.10;;;;;;5002811;28;20050;-81
2023/06/16 09:33:00;;;;;;;1.85;0.80;;;25.30;91.60;;;;;;5020238;28;20033;-81
2023/06/16 09:35:30;;;;;;;1.60;0.60;;;25.00;91.50;;;;;;4995652;28;20442;-80
2023/06/16 09:37:58;;;;;;;1.65;0.52;;;25.90;93.00;;;;;;5005432;28;20197;-80
2023/06/16 09:40:31;;;;;;;0.88;0.50;;;26.40;91.80;;;;;;5003087;28;20435;-80
2023/06/16 09:43:03;;;;;;;1.42;0.70;;;26.80;91.60;;;;;;5006559;28;20041;-80
2023/06/16 09:45:33;;;;;;;1.60;0.50;;;26.60;91.30;;;;;;4996270;28;20107;-79
2023/06/16 09:48:03;;;;;;;1.67;0.70;;;26.20;91.40;;;;;;5019462;28;20031;-79
2023/06/16 09:50:30;;;;;;;5.10;0.80;;;25.80;91.40;;;;;;5004796;28;20553;-79
2023/06/16 09:52:57;;;;;;;2.05;0.98;;;25.60;90.90;;;;;;4986357;28;20100;-79
2023/06/16 09:55:27;;;;;;;3.08;0.70;;;26.00;91.70;;;;;;5002633;28;20038;-79
2023/06/16 09:57:53;;;;;;;2.22;0.80;;;26.30;91.90;;;;;;5018233;28;20026;-78
2023/06/16 10:00:19;;;;;;;1.80;0.63;;;26.20;91.60;;;;;;5034522;28;20485;-80
2023/06/16 10:02:46;;;;;;;1.48;0.82;;;26.60;91.20;;;;;;5001836;28;20033;-78
2023/06/16 10:05:14;;;;;;;1.95;0.82;;;26.40;91.00;;;;;;5004972;28;20038;-79
2023/06/16 10:07:42;;;;;;;2.55;0.90;;;26.60;90.80;;;;;;5033089;28;20046;-79
2023/06/16 10:10:12;;;;;;;1.42;0.70;;;26.40;91.20;;;;;;5032798;28;20106;-80
2023/06/16 10:12:45;;;;;;;1.58;0.60;;;26.70;91.10;;;;;;5005058;28;20033;-80
2023/06/16 10:15:15;;;;;;;1.98;0.40;;;27.60;89.00;;;;;;5017883;28;20049;-79
2023/06/16 10:17:42;;;;;;;2.75;0.70;;;28.00;90.10;;;;;;5001211;28;20049;-81
2023/06/16 10:20:12;;;;;;;1.63;0.80;;;27.10;89.60;;;;;;5005593;28;20049;-79
2023/06/16 10:22:38;;;;;;;1.73;1.02;;;26.30;89.90;;;;;;5000327;28;20081;-80
2023/06/16 10:25:05;;;;;;;2.00;0.70;;;26.30;90.80;;;;;;5033099;28;20038;-80
2023/06/16 10:27:33;;;;;;;2.42;0.80;;;26.30;89.70;;;;;;4997909;28;20038;-79
2023/06/16 10:30:01;;;;;;;1.35;0.70;;;26.50;89.30;;;;;;5003233;28;20558;-79
2023/06/16 10:32:26;;;;;;;2.08;0.75;;;27.20;90.40;;;;;;5005906;28;20026;-81
2023/06/16 10:34:56;;;;;;;1.60;0.80;;;27.10;90.20;;;;;;5004532;28;20038;-80
2023/06/16 10:37:24;;;;;;;1.42;0.60;;;27.30;89.30;;;;;;5002488;28;20022;-81
2023/06/16 10:39:54;;;;;;;3.10;0.60;;;27.70;88.10;;;;;;5000246;28;20026;-81
2023/06/16 10:42:20;;;;;;;1.65;0.77;;;27.60;87.10;;;;;;5015383;28;20037;-81
2023/06/16 10:44:45;;;;;;;2.65;0.60;;;27.40;87.90;;;;;;5034594;28;20034;-81
2023/06/16 10:47:11;;;;;;;1.40;0.50;;;28.00;87.90;;;;;;4997235;28;20033;-81
2023/06/16 10:49:51;;;;;;;2.47;0.70;;;27.80;86.90;;;;;;5004046;28;20117;-81
2023/06/16 10:52:42;;;;;;;1.88;0.70;;;27.60;87.70;;;;;;4982156;28;20023;-81
2023/06/16 10:55:34;;;;;;;1.65;0.90;;;28.00;88.80;;;;;;4979375;28;20046;-80
2023/06/16 10:58:15;;;;;;;2.70;1.05;;;28.10;87.50;;;;;;4996988;28;20026;-80
2023/06/16 11:00:58;;;;;;;1.52;0.60;;;28.20;87.80;;;;;;5032675;28;20058;-80
2023/06/16 11:03:46;;;;;;;1.08;0.57;;;28.10;85.80;;;;;;4998392;28;20034;-80
2023/06/16 11:06:12;;;;;;;1.90;0.50;;;28.50;86.90;;;;;;5001002;28;20030;-81
2023/06/16 11:08:52;;;;;;;1.38;0.70;;;28.60;87.50;;;;;;5013738;28;20065;-81
2023/06/16 11:11:18;;;;;;;2.63;0.65;;;27.50;87.50;;;;;;5014815;28;20038;-80
2023/06/16 11:13:44;;;;;;;2.55;0.70;;;27.50;87.60;;;;;;5004884;28;20092;-79
2023/06/16 11:16:10;;;;;;;1.45;0.60;;;27.80;86.40;;;;;;5005003;28;20105;-80
2023/06/16 11:18:36;;;;;;;2.20;0.60;;;28.40;88.10;;;;;;5013289;28;20038;-81
2023/06/16 11:21:03;;;;;;;1.00;0.50;;;29.10;88.10;;;;;;5015387;28;20050;-80
2023/06/16 11:23:30;;;;;;;1.63;1.05;;;29.30;86.10;;;;;;5017354;28;20498;-80
2023/06/16 11:26:10;;;;;;;1.42;0.70;;;28.50;86.00;;;;;;5015766;28;20030;-80
2023/06/16 11:28:40;;;;;;;2.38;0.85;;;28.40;88.10;;;;;;5001547;28;20072;-81
2023/06/16 11:31:07;;;;;;;1.25;0.50;;;28.30;87.00;;;;;;5004455;28;20037;-79
2023/06/16 11:33:33;;;;;;;2.05;0.70;;;28.30;87.00;;;;;;5005611;28;20065;-80
2023/06/16 11:36:35;;;;;;;2.05;0.70;;;27.70;85.90;;;;;;4991109;28;20503;-80
2023/06/16 11:39:03;;;;;;;1.58;0.60;;;27.70;86.10;;;;;;4985774;28;20043;-81
2023/06/16 11:41:30;;;;;;;2.00;0.50;;;28.40;86.80;;;;;;5015592;28;20048;-80
2023/06/16 11:43:56;;;;;;;1.60;0.70;;;29.10;88.00;;;;;;5008385;28;20034;-80
2023/06/16 11:46:27;;;;;;;0.90;0.50;;;28.80;88.00;;;;;;5007669;28;20493;-80
2023/06/16 11:48:53;;;;;;;3.28;0.60;;;28.80;85.20;;;;;;5019592;28;20383;-80
2023/06/16 11:51:20;;;;;;;3.65;0.70;;;29.10;86.00;;;;;;5007440;28;20034;-80
2023/06/16 11:53:47;;;;;;;1.58;0.70;;;29.10;86.20;;;;;;5003557;28;20147;-80
2023/06/16 11:56:14;;;;;;;1.80;0.80;;;28.90;85.40;;;;;;5006069;28;20030;-80
2023/06/16 11:58:45;;;;;;;2.38;0.90;;;28.30;85.10;;;;;;5001850;28;20124;-80
2023/06/16 12:01:15;;;;;;;1.30;0.80;;;27.50;86.90;;;;;;4990879;28;20457;-80
2023/06/16 12:03:42;;;;;;;2.25;0.80;;;27.30;86.90;;;;;;4987984;28;20061;-80
2023/06/16 12:06:09;;;;;;;1.63;0.60;;;27.80;87.20;;;;;;5008242;28;20034;-81
2023/06/16 12:08:42;;;;;;;1.65;0.80;;;28.50;84.60;;;;;;5005247;28;20101;-79
2023/06/16 12:11:15;;;;;;;1.88;0.90;;;28.10;86.00;;;;;;5002880;28;20470;-79
2023/06/16 12:13:41;;;;;;;2.15;0.93;;;27.70;85.70;;;;;;5036268;28;20521;-81
2023/06/16 12:16:10;;;;;;;1.90;0.85;;;27.80;86.20;;;;;;5036275;28;20033;-80
2023/06/16 12:18:36;;;;;;;6.13;1.00;;;27.70;85.80;;;;;;5004889;28;20117;-80
2023/06/16 12:21:22;;;;;;;1.98;0.73;;;27.20;87.90;;;;;;5000899;28;20038;-81
2023/06/16 12:24:10;;;;;;;2.30;0.88;;;27.70;87.20;;;;;;5007352;28;20379;-81
2023/06/16 12:26:43;;;;;;;1.80;0.80;;;27.30;86.20;;;;;;5008001;28;20112;-81
2023/06/16 12:29:14;;;;;;;1.75;0.90;;;26.70;85.60;;;;;;4986787;28;20077;-82
2023/06/16 12:31:56;;;;;;;2.50;0.80;;;26.40;87.60;;;;;;4999911;28;20022;-79
2023/06/16 12:34:26;;;;;;;1.20;0.60;;;27.20;85.50;;;;;;5007742;28;20577;-82
2023/06/16 12:36:53;;;;;;;1.75;0.70;;;28.10;85.40;;;;;;4991336;28;20068;-81
2023/06/16 12:39:23;;;;;;;1.77;0.75;;;27.70;85.40;;;;;;5008390;28;20037;-80
2023/06/16 12:42:06;;;;;;;1.70;0.60;;;27.80;86.60;;;;;;5031494;28;20054;-81
2023/06/16 12:44:42;;;;;;;1.20;0.50;;;27.90;85.10;;;;;;4985819;28;20041;-80
2023/06/16 12:47:08;;;;;;;1.85;0.68;;;28.70;86.60;;;;;;5017722;28;20124;-81
2023/06/16 12:49:34;;;;;;;1.85;0.55;;;28.40;85.10;;;;;;4988354;28;20038;-82
2023/06/16 12:52:01;;;;;;;1.65;0.63;;;27.50;84.40;;;;;;5004882;28;20030;-81
2023/06/16 12:54:27;;;;;;;1.52;0.60;;;27.10;84.40;;;;;;5015960;28;20042;-82